sensor_id;sensor_type;location;lat;lon;timestamp;temperature;humidity
17423;DHT22;8829;47.932;7.810;2024-01-06T00:00:53;6.20;99.90
17423;DHT22;8829;47.932;7.810;2024-01-06T00:03:20;6.00;99.90
17423;DHT22;8829;47.932;7.810;2024-01-06T00:05:47;6.10;99.90
17423;DHT22;8829;47.932;7.810;2024-01-06T00:08:14;6.00;99.90
17423;DHT22;8829;47.932;7.810;2024-01-06T00:10:40;6.00;99.90
17423;DHT22;8829;47.932;7.810;2024-01-06T00:13:07;6.00;99.90
17423;DHT22;8829;47.932;7.810;2024-01-06T00:15:34;6.10;99.90
17423;DHT22;8829;47.932;7.810;2024-01-06T00:18:01;6.10;99.90
17423;DHT22;8829;47.932;7.810;2024-01-06T00:20:28;6.10;99.90
17423;DHT22;8829;47.932;7.810;2024-01-06T00:22:55;6.10;99.90
17423;DHT22;8829;47.932;7.810;2024-01-06T00:25:24;6.10;99.90
17423;DHT22;8829;47.932;7.810;2024-01-06T00:27:51;6.00;99.90
17423;DHT22;8829;47.932;7.810;2024-01-06T00:30:17;6.10;99.90
17423;DHT22;8829;47.932;7.810;2024-01-06T00:32:44;6.00;99.90
17423;DHT22;8829;47.932;7.810;2024-01-06T00:35:11;5.90;99.90
17423;DHT22;8829;47.932;7.810;2024-01-06T00:37:38;5.90;99.90
17423;DHT22;8829;47.932;7.810;2024-01-06T00:40:06;5.80;99.90
17423;DHT22;8829;47.932;7.810;2024-01-06T00:42:33;5.80;99.90
17423;DHT22;8829;47.932;7.810;2024-01-06T00:45:00;5.80;99.90
17423;DHT22;8829;47.932;7.810;2024-01-06T00:47:26;5.90;99.90
17423;DHT22;8829;47.932;7.810;2024-01-06T00:49:53;5.90;99.90
17423;DHT22;8829;47.932;7.810;2024-01-06T00:52:20;5.90;99.90
17423;DHT22;8829;47.932;7.810;2024-01-06T00:54:48;5.90;99.90
17423;DHT22;8829;47.932;7.810;2024-01-06T00:57:14;5.90;99.90
17423;DHT22;8829;47.932;7.810;2024-01-06T00:59:41;6.00;99.90
17423;DHT22;8829;47.932;7.810;2024-01-06T01:02:08;5.90;99.90
17423;DHT22;8829;47.932;7.810;2024-01-06T01:04:35;5.90;99.90
17423;DHT22;8829;47.932;7.810;2024-01-06T01:07:01;5.90;99.90
17423;DHT22;8829;47.932;7.810;2024-01-06T01:09:28;5.90;99.90
17423;DHT22;8829;47.932;7.810;2024-01-06T01:11:56;5.90;99.90
17423;DHT22;8829;47.932;7.810;2024-01-06T01:14:23;5.80;99.90
17423;DHT22;8829;47.932;7.810;2024-01-06T01:16:49;5.80;99.90
17423;DHT22;8829;47.932;7.810;2024-01-06T01:19:16;5.80;99.90
17423;DHT22;8829;47.932;7.810;2024-01-06T01:21:43;5.80;99.90
17423;DHT22;8829;47.932;7.810;2024-01-06T01:24:09;5.70;99.90
17423;DHT22;8829;47.932;7.810;2024-01-06T01:26:36;5.80;99.90
17423;DHT22;8829;47.932;7.810;2024-01-06T01:29:04;5.80;99.90
17423;DHT22;8829;47.932;7.810;2024-01-06T01:31:31;5.80;99.90
17423;DHT22;8829;47.932;7.810;2024-01-06T01:33:57;5.80;99.90
17423;DHT22;8829;47.932;7.810;2024-01-06T01:36:24;5.80;99.90
17423;DHT22;8829;47.932;7.810;2024-01-06T01:38:50;5.80;99.90
17423;DHT22;8829;47.932;7.810;2024-01-06T01:41:17;5.90;99.90
17423;DHT22;8829;47.932;7.810;2024-01-06T01:43:45;5.90;99.90
17423;DHT22;8829;47.932;7.810;2024-01-06T01:46:13;5.80;99.90
17423;DHT22;8829;47.932;7.810;2024-01-06T01:48:40;5.80;99.90
17423;DHT22;8829;47.932;7.810;2024-01-06T01:51:08;5.80;99.90
17423;DHT22;8829;47.932;7.810;2024-01-06T01:53:35;5.90;99.90
17423;DHT22;8829;47.932;7.810;2024-01-06T01:56:03;5.90;99.90
17423;DHT22;8829;47.932;7.810;2024-01-06T01:58:30;5.80;99.90
17423;DHT22;8829;47.932;7.810;2024-01-06T02:00:56;5.80;99.90
17423;DHT22;8829;47.932;7.810;2024-01-06T02:03:25;5.60;99.90
17423;DHT22;8829;47.932;7.810;2024-01-06T02:05:52;5.70;99.90
17423;DHT22;8829;47.932;7.810;2024-01-06T02:08:19;5.70;99.90
17423;DHT22;8829;47.932;7.810;2024-01-06T02:10:46;5.70;99.90
17423;DHT22;8829;47.932;7.810;2024-01-06T02:13:12;5.70;99.90
17423;DHT22;8829;47.932;7.810;2024-01-06T02:15:39;5.70;99.90
17423;DHT22;8829;47.932;7.810;2024-01-06T02:18:06;5.60;99.90
17423;DHT22;8829;47.932;7.810;2024-01-06T02:20:34;5.60;99.90
17423;DHT22;8829;47.932;7.810;2024-01-06T02:23:03;5.60;99.90
17423;DHT22;8829;47.932;7.810;2024-01-06T02:25:29;5.70;99.90
17423;DHT22;8829;47.932;7.810;2024-01-06T02:27:56;5.60;99.90
17423;DHT22;8829;47.932;7.810;2024-01-06T02:30:23;5.50;99.90
17423;DHT22;8829;47.932;7.810;2024-01-06T02:32:49;5.50;99.90
17423;DHT22;8829;47.932;7.810;2024-01-06T02:35:16;5.60;99.90
17423;DHT22;8829;47.932;7.810;2024-01-06T02:37:43;5.50;99.90
17423;DHT22;8829;47.932;7.810;2024-01-06T02:40:13;5.40;99.90
17423;DHT22;8829;47.932;7.810;2024-01-06T02:42:39;5.50;99.90
17423;DHT22;8829;47.932;7.810;2024-01-06T02:45:07;5.60;99.90
17423;DHT22;8829;47.932;7.810;2024-01-06T02:47:34;5.40;99.90
17423;DHT22;8829;47.932;7.810;2024-01-06T02:50:01;5.40;99.90
17423;DHT22;8829;47.932;7.810;2024-01-06T02:52:27;5.20;99.90
17423;DHT22;8829;47.932;7.810;2024-01-06T02:54:54;5.30;99.90
17423;DHT22;8829;47.932;7.810;2024-01-06T02:57:22;5.20;99.90
17423;DHT22;8829;47.932;7.810;2024-01-06T02:59:48;5.10;99.90
17423;DHT22;8829;47.932;7.810;2024-01-06T03:02:16;5.10;99.90
17423;DHT22;8829;47.932;7.810;2024-01-06T03:04:42;5.00;99.90
17423;DHT22;8829;47.932;7.810;2024-01-06T03:07:09;5.10;99.90
17423;DHT22;8829;47.932;7.810;2024-01-06T03:09:36;5.00;99.90
17423;DHT22;8829;47.932;7.810;2024-01-06T03:12:05;5.10;99.90
17423;DHT22;8829;47.932;7.810;2024-01-06T03:14:34;5.00;99.90
17423;DHT22;8829;47.932;7.810;2024-01-06T03:17:00;5.00;99.90
17423;DHT22;8829;47.932;7.810;2024-01-06T03:19:28;5.00;99.90
17423;DHT22;8829;47.932;7.810;2024-01-06T03:21:55;4.90;99.90
17423;DHT22;8829;47.932;7.810;2024-01-06T03:24:22;4.90;99.90
17423;DHT22;8829;47.932;7.810;2024-01-06T03:26:49;4.90;99.90
17423;DHT22;8829;47.932;7.810;2024-01-06T03:29:16;4.90;99.90
17423;DHT22;8829;47.932;7.810;2024-01-06T03:31:44;5.00;99.90
17423;DHT22;8829;47.932;7.810;2024-01-06T03:34:11;5.20;99.90
17423;DHT22;8829;47.932;7.810;2024-01-06T03:36:38;5.20;99.90
17423;DHT22;8829;47.932;7.810;2024-01-06T03:39:05;5.10;99.90
17423;DHT22;8829;47.932;7.810;2024-01-06T03:41:32;5.00;99.90
17423;DHT22;8829;47.932;7.810;2024-01-06T03:43:59;5.00;99.90
17423;DHT22;8829;47.932;7.810;2024-01-06T03:46:26;5.00;99.90
17423;DHT22;8829;47.932;7.810;2024-01-06T03:48:54;5.00;99.90
17423;DHT22;8829;47.932;7.810;2024-01-06T03:51:20;4.90;99.90
17423;DHT22;8829;47.932;7.810;2024-01-06T03:53:47;4.90;99.90
17423;DHT22;8829;47.932;7.810;2024-01-06T03:56:14;5.00;99.90
17423;DHT22;8829;47.932;7.810;2024-01-06T03:58:41;5.10;99.90
17423;DHT22;8829;47.932;7.810;2024-01-06T04:01:07;5.00;99.90
17423;DHT22;8829;47.932;7.810;2024-01-06T04:03:34;4.90;99.90
17423;DHT22;8829;47.932;7.810;2024-01-06T04:06:02;4.80;99.90
17423;DHT22;8829;47.932;7.810;2024-01-06T04:08:29;4.80;99.90
17423;DHT22;8829;47.932;7.810;2024-01-06T04:10:56;4.90;99.90
17423;DHT22;8829;47.932;7.810;2024-01-06T04:13:22;4.90;99.90
17423;DHT22;8829;47.932;7.810;2024-01-06T04:15:50;4.90;99.90
17423;DHT22;8829;47.932;7.810;2024-01-06T04:18:17;5.00;99.90
17423;DHT22;8829;47.932;7.810;2024-01-06T04:20:43;5.10;99.90
17423;DHT22;8829;47.932;7.810;2024-01-06T04:23:11;5.20;99.90
17423;DHT22;8829;47.932;7.810;2024-01-06T04:25:38;5.20;99.90
17423;DHT22;8829;47.932;7.810;2024-01-06T04:28:05;5.20;99.90
17423;DHT22;8829;47.932;7.810;2024-01-06T04:30:31;5.20;99.90
17423;DHT22;8829;47.932;7.810;2024-01-06T04:32:58;5.20;99.90
17423;DHT22;8829;47.932;7.810;2024-01-06T04:35:25;5.20;99.90
17423;DHT22;8829;47.932;7.810;2024-01-06T04:37:52;5.20;99.90
17423;DHT22;8829;47.932;7.810;2024-01-06T04:40:20;5.00;99.90
17423;DHT22;8829;47.932;7.810;2024-01-06T04:42:47;5.00;99.90
17423;DHT22;8829;47.932;7.810;2024-01-06T04:45:13;5.20;99.90
17423;DHT22;8829;47.932;7.810;2024-01-06T04:47:40;5.00;99.90
17423;DHT22;8829;47.932;7.810;2024-01-06T04:50:07;5.10;99.90
17423;DHT22;8829;47.932;7.810;2024-01-06T04:52:34;5.20;99.90
17423;DHT22;8829;47.932;7.810;2024-01-06T04:55:01;5.20;99.90
17423;DHT22;8829;47.932;7.810;2024-01-06T04:57:29;5.30;99.90
17423;DHT22;8829;47.932;7.810;2024-01-06T04:59:56;5.20;99.90
17423;DHT22;8829;47.932;7.810;2024-01-06T05:02:23;5.10;99.90
17423;DHT22;8829;47.932;7.810;2024-01-06T05:04:50;5.00;99.90
17423;DHT22;8829;47.932;7.810;2024-01-06T05:07:16;5.10;99.90
17423;DHT22;8829;47.932;7.810;2024-01-06T05:09:43;5.20;99.90
17423;DHT22;8829;47.932;7.810;2024-01-06T05:12:10;5.20;99.90
17423;DHT22;8829;47.932;7.810;2024-01-06T05:14:38;5.30;99.90
17423;DHT22;8829;47.932;7.810;2024-01-06T05:17:05;5.30;99.90
17423;DHT22;8829;47.932;7.810;2024-01-06T05:19:32;5.40;99.90
17423;DHT22;8829;47.932;7.810;2024-01-06T05:21:59;5.50;99.90
17423;DHT22;8829;47.932;7.810;2024-01-06T05:24:25;5.40;99.90
17423;DHT22;8829;47.932;7.810;2024-01-06T05:26:52;5.40;99.90
17423;DHT22;8829;47.932;7.810;2024-01-06T05:29:19;5.40;99.90
17423;DHT22;8829;47.932;7.810;2024-01-06T05:31:47;5.30;99.90
17423;DHT22;8829;47.932;7.810;2024-01-06T05:34:14;5.30;99.90
17423;DHT22;8829;47.932;7.810;2024-01-06T05:36:41;5.30;99.90
17423;DHT22;8829;47.932;7.810;2024-01-06T05:39:07;5.30;99.90
17423;DHT22;8829;47.932;7.810;2024-01-06T05:41:37;5.30;99.90
17423;DHT22;8829;47.932;7.810;2024-01-06T05:44:05;5.40;99.90
17423;DHT22;8829;47.932;7.810;2024-01-06T05:46:32;5.40;99.90
17423;DHT22;8829;47.932;7.810;2024-01-06T05:49:00;5.20;99.90
17423;DHT22;8829;47.932;7.810;2024-01-06T05:51:26;5.20;99.90
17423;DHT22;8829;47.932;7.810;2024-01-06T05:53:53;5.10;99.90
17423;DHT22;8829;47.932;7.810;2024-01-06T05:56:23;5.20;99.90
17423;DHT22;8829;47.932;7.810;2024-01-06T05:58:51;5.30;99.90
17423;DHT22;8829;47.932;7.810;2024-01-06T06:01:18;5.30;99.90
17423;DHT22;8829;47.932;7.810;2024-01-06T06:03:46;5.40;99.90
17423;DHT22;8829;47.932;7.810;2024-01-06T06:06:14;5.30;99.90
17423;DHT22;8829;47.932;7.810;2024-01-06T06:08:41;5.20;99.90
17423;DHT22;8829;47.932;7.810;2024-01-06T06:11:08;5.20;99.90
17423;DHT22;8829;47.932;7.810;2024-01-06T06:13:37;5.20;99.90
17423;DHT22;8829;47.932;7.810;2024-01-06T06:16:04;5.30;99.90
17423;DHT22;8829;47.932;7.810;2024-01-06T06:18:31;5.30;99.90
17423;DHT22;8829;47.932;7.810;2024-01-06T06:20:58;5.30;99.90
17423;DHT22;8829;47.932;7.810;2024-01-06T06:23:26;5.10;99.90
17423;DHT22;8829;47.932;7.810;2024-01-06T06:25:53;5.20;99.90
17423;DHT22;8829;47.932;7.810;2024-01-06T06:28:20;5.20;99.90
17423;DHT22;8829;47.932;7.810;2024-01-06T06:30:46;5.20;99.90
17423;DHT22;8829;47.932;7.810;2024-01-06T06:33:13;5.20;99.90
17423;DHT22;8829;47.932;7.810;2024-01-06T06:35:40;5.30;99.90
17423;DHT22;8829;47.932;7.810;2024-01-06T06:38:07;5.30;99.90
17423;DHT22;8829;47.932;7.810;2024-01-06T06:40:35;5.30;99.90
17423;DHT22;8829;47.932;7.810;2024-01-06T06:43:02;5.40;99.90
17423;DHT22;8829;47.932;7.810;2024-01-06T06:45:29;5.20;99.90
17423;DHT22;8829;47.932;7.810;2024-01-06T06:47:56;5.20;99.90
17423;DHT22;8829;47.932;7.810;2024-01-06T06:50:23;5.10;99.90
17423;DHT22;8829;47.932;7.810;2024-01-06T06:52:50;5.10;99.90
17423;DHT22;8829;47.932;7.810;2024-01-06T06:55:17;5.10;99.90
17423;DHT22;8829;47.932;7.810;2024-01-06T06:57:46;5.20;99.90
17423;DHT22;8829;47.932;7.810;2024-01-06T07:00:13;5.20;99.90
17423;DHT22;8829;47.932;7.810;2024-01-06T07:02:40;5.20;99.90
17423;DHT22;8829;47.932;7.810;2024-01-06T07:05:07;5.10;99.90
17423;DHT22;8829;47.932;7.810;2024-01-06T07:07:34;5.20;99.90
17423;DHT22;8829;47.932;7.810;2024-01-06T07:10:01;5.10;99.90
17423;DHT22;8829;47.932;7.810;2024-01-06T07:12:28;5.10;99.90
17423;DHT22;8829;47.932;7.810;2024-01-06T07:14:57;5.00;99.90
17423;DHT22;8829;47.932;7.810;2024-01-06T07:17:24;5.00;99.90
17423;DHT22;8829;47.932;7.810;2024-01-06T07:19:51;5.00;99.90
17423;DHT22;8829;47.932;7.810;2024-01-06T07:22:19;5.00;99.90
17423;DHT22;8829;47.932;7.810;2024-01-06T07:24:45;5.00;99.90
17423;DHT22;8829;47.932;7.810;2024-01-06T07:27:12;5.00;99.90
17423;DHT22;8829;47.932;7.810;2024-01-06T07:29:40;5.10;99.90
17423;DHT22;8829;47.932;7.810;2024-01-06T07:32:08;5.10;99.90
17423;DHT22;8829;47.932;7.810;2024-01-06T07:34:35;5.10;99.90
17423;DHT22;8829;47.932;7.810;2024-01-06T07:37:01;5.30;99.90
17423;DHT22;8829;47.932;7.810;2024-01-06T07:39:28;5.40;99.90
17423;DHT22;8829;47.932;7.810;2024-01-06T07:41:55;5.60;99.90
17423;DHT22;8829;47.932;7.810;2024-01-06T07:44:21;5.70;99.90
17423;DHT22;8829;47.932;7.810;2024-01-06T07:46:50;5.80;99.90
17423;DHT22;8829;47.932;7.810;2024-01-06T07:49:18;5.80;99.90
17423;DHT22;8829;47.932;7.810;2024-01-06T07:51:45;5.70;99.90
17423;DHT22;8829;47.932;7.810;2024-01-06T07:54:11;5.70;99.90
17423;DHT22;8829;47.932;7.810;2024-01-06T07:56:38;5.70;99.90
17423;DHT22;8829;47.932;7.810;2024-01-06T07:59:05;5.70;99.90
17423;DHT22;8829;47.932;7.810;2024-01-06T08:01:32;5.70;99.90
17423;DHT22;8829;47.932;7.810;2024-01-06T08:03:59;5.70;99.90
17423;DHT22;8829;47.932;7.810;2024-01-06T08:06:27;5.70;99.90
17423;DHT22;8829;47.932;7.810;2024-01-06T08:08:54;5.80;99.90
17423;DHT22;8829;47.932;7.810;2024-01-06T08:11:21;5.90;99.90
17423;DHT22;8829;47.932;7.810;2024-01-06T08:13:48;5.90;99.90
17423;DHT22;8829;47.932;7.810;2024-01-06T08:16:14;5.80;99.90
17423;DHT22;8829;47.932;7.810;2024-01-06T08:18:41;5.50;99.90
17423;DHT22;8829;47.932;7.810;2024-01-06T08:21:08;5.40;99.90
17423;DHT22;8829;47.932;7.810;2024-01-06T08:23:36;5.20;99.90
17423;DHT22;8829;47.932;7.810;2024-01-06T08:26:03;5.10;99.90
17423;DHT22;8829;47.932;7.810;2024-01-06T08:28:30;5.10;99.90
17423;DHT22;8829;47.932;7.810;2024-01-06T08:30:57;5.10;99.90
17423;DHT22;8829;47.932;7.810;2024-01-06T08:33:23;5.00;99.90
17423;DHT22;8829;47.932;7.810;2024-01-06T08:35:50;5.20;99.90
17423;DHT22;8829;47.932;7.810;2024-01-06T08:38:17;5.20;99.90
17423;DHT22;8829;47.932;7.810;2024-01-06T08:40:46;5.30;99.90
17423;DHT22;8829;47.932;7.810;2024-01-06T08:43:13;5.20;99.90
17423;DHT22;8829;47.932;7.810;2024-01-06T08:45:40;5.20;99.90
17423;DHT22;8829;47.932;7.810;2024-01-06T08:48:07;5.20;99.90
17423;DHT22;8829;47.932;7.810;2024-01-06T08:50:34;5.30;99.90
17423;DHT22;8829;47.932;7.810;2024-01-06T08:53:00;5.40;99.90
17423;DHT22;8829;47.932;7.810;2024-01-06T08:55:27;5.40;99.90
17423;DHT22;8829;47.932;7.810;2024-01-06T08:57:55;5.40;99.90
17423;DHT22;8829;47.932;7.810;2024-01-06T09:00:22;5.40;99.90
17423;DHT22;8829;47.932;7.810;2024-01-06T09:02:49;5.50;99.90
17423;DHT22;8829;47.932;7.810;2024-01-06T09:05:15;5.50;99.90
17423;DHT22;8829;47.932;7.810;2024-01-06T09:07:42;5.50;99.90
17423;DHT22;8829;47.932;7.810;2024-01-06T09:10:10;5.50;99.90
17423;DHT22;8829;47.932;7.810;2024-01-06T09:12:36;5.70;99.90
17423;DHT22;8829;47.932;7.810;2024-01-06T09:15:06;6.00;99.90
17423;DHT22;8829;47.932;7.810;2024-01-06T09:17:33;5.80;99.90
17423;DHT22;8829;47.932;7.810;2024-01-06T09:20:00;5.80;99.90
17423;DHT22;8829;47.932;7.810;2024-01-06T09:22:26;5.80;99.90
17423;DHT22;8829;47.932;7.810;2024-01-06T09:24:53;5.70;99.90
17423;DHT22;8829;47.932;7.810;2024-01-06T09:27:20;5.60;99.90
17423;DHT22;8829;47.932;7.810;2024-01-06T09:29:47;5.60;99.90
17423;DHT22;8829;47.932;7.810;2024-01-06T09:32:15;5.50;99.90
17423;DHT22;8829;47.932;7.810;2024-01-06T09:34:41;5.60;99.90
17423;DHT22;8829;47.932;7.810;2024-01-06T09:37:08;5.50;99.90
17423;DHT22;8829;47.932;7.810;2024-01-06T09:39:34;5.50;99.90
17423;DHT22;8829;47.932;7.810;2024-01-06T09:42:01;5.50;99.90
17423;DHT22;8829;47.932;7.810;2024-01-06T09:44:28;5.50;99.90
17423;DHT22;8829;47.932;7.810;2024-01-06T09:46:58;5.60;99.90
17423;DHT22;8829;47.932;7.810;2024-01-06T09:49:28;5.60;99.90
17423;DHT22;8829;47.932;7.810;2024-01-06T09:51:58;5.60;99.90
17423;DHT22;8829;47.932;7.810;2024-01-06T09:54:25;5.60;99.90
17423;DHT22;8829;47.932;7.810;2024-01-06T09:56:59;5.60;99.90
17423;DHT22;8829;47.932;7.810;2024-01-06T09:59:26;5.80;99.90
17423;DHT22;8829;47.932;7.810;2024-01-06T10:01:55;5.70;99.90
17423;DHT22;8829;47.932;7.810;2024-01-06T10:04:23;5.60;99.90
17423;DHT22;8829;47.932;7.810;2024-01-06T10:06:51;5.70;99.90
17423;DHT22;8829;47.932;7.810;2024-01-06T10:09:26;5.80;99.90
17423;DHT22;8829;47.932;7.810;2024-01-06T10:11:55;5.90;99.90
17423;DHT22;8829;47.932;7.810;2024-01-06T10:14:21;5.80;99.90
17423;DHT22;8829;47.932;7.810;2024-01-06T10:16:48;5.80;99.90
17423;DHT22;8829;47.932;7.810;2024-01-06T10:19:16;5.80;99.90
17423;DHT22;8829;47.932;7.810;2024-01-06T10:21:43;5.80;99.90
17423;DHT22;8829;47.932;7.810;2024-01-06T10:24:12;5.90;99.90
17423;DHT22;8829;47.932;7.810;2024-01-06T10:26:39;6.00;99.90
17423;DHT22;8829;47.932;7.810;2024-01-06T10:29:06;6.00;99.90
17423;DHT22;8829;47.932;7.810;2024-01-06T10:31:33;6.00;99.90
17423;DHT22;8829;47.932;7.810;2024-01-06T10:34:00;6.20;99.90
17423;DHT22;8829;47.932;7.810;2024-01-06T10:36:28;6.10;99.90
17423;DHT22;8829;47.932;7.810;2024-01-06T10:38:57;6.40;99.90
17423;DHT22;8829;47.932;7.810;2024-01-06T10:41:26;6.30;99.90
17423;DHT22;8829;47.932;7.810;2024-01-06T10:43:53;6.10;99.90
17423;DHT22;8829;47.932;7.810;2024-01-06T10:46:22;6.20;99.90
17423;DHT22;8829;47.932;7.810;2024-01-06T10:48:52;6.10;99.90
17423;DHT22;8829;47.932;7.810;2024-01-06T10:51:19;6.30;99.90
17423;DHT22;8829;47.932;7.810;2024-01-06T10:53:48;6.30;99.90
17423;DHT22;8829;47.932;7.810;2024-01-06T10:56:15;6.30;99.90
17423;DHT22;8829;47.932;7.810;2024-01-06T10:58:45;6.30;99.90
17423;DHT22;8829;47.932;7.810;2024-01-06T11:01:13;6.20;99.90
17423;DHT22;8829;47.932;7.810;2024-01-06T11:03:41;6.20;99.90
17423;DHT22;8829;47.932;7.810;2024-01-06T11:06:09;6.00;99.90
17423;DHT22;8829;47.932;7.810;2024-01-06T11:08:43;6.00;99.90
17423;DHT22;8829;47.932;7.810;2024-01-06T11:11:15;6.10;99.90
17423;DHT22;8829;47.932;7.810;2024-01-06T11:13:45;6.00;99.90
17423;DHT22;8829;47.932;7.810;2024-01-06T11:16:37;5.90;99.90
17423;DHT22;8829;47.932;7.810;2024-01-06T11:19:41;5.90;99.90
17423;DHT22;8829;47.932;7.810;2024-01-06T11:22:23;5.90;99.90
17423;DHT22;8829;47.932;7.810;2024-01-06T11:24:51;6.10;99.90
17423;DHT22;8829;47.932;7.810;2024-01-06T11:27:18;6.10;99.90
17423;DHT22;8829;47.932;7.810;2024-01-06T11:29:46;6.30;99.90
17423;DHT22;8829;47.932;7.810;2024-01-06T11:32:25;6.40;99.90
17423;DHT22;8829;47.932;7.810;2024-01-06T11:34:54;6.60;99.90
17423;DHT22;8829;47.932;7.810;2024-01-06T11:37:25;6.70;99.90
17423;DHT22;8829;47.932;7.810;2024-01-06T11:40:00;6.80;99.90
17423;DHT22;8829;47.932;7.810;2024-01-06T11:42:32;6.80;99.90
17423;DHT22;8829;47.932;7.810;2024-01-06T11:45:01;6.70;99.90
17423;DHT22;8829;47.932;7.810;2024-01-06T11:47:30;6.80;99.90
17423;DHT22;8829;47.932;7.810;2024-01-06T11:49:59;6.80;99.90
17423;DHT22;8829;47.932;7.810;2024-01-06T11:52:26;6.80;99.90
17423;DHT22;8829;47.932;7.810;2024-01-06T11:54:55;6.80;99.90
17423;DHT22;8829;47.932;7.810;2024-01-06T11:57:22;6.90;99.90
17423;DHT22;8829;47.932;7.810;2024-01-06T11:59:48;6.90;99.90
17423;DHT22;8829;47.932;7.810;2024-01-06T12:02:17;6.90;99.90
17423;DHT22;8829;47.932;7.810;2024-01-06T12:04:49;6.90;99.90
17423;DHT22;8829;47.932;7.810;2024-01-06T12:07:18;7.00;99.90
17423;DHT22;8829;47.932;7.810;2024-01-06T12:09:45;7.00;99.90
17423;DHT22;8829;47.932;7.810;2024-01-06T12:12:15;7.10;99.90
17423;DHT22;8829;47.932;7.810;2024-01-06T12:14:45;7.00;99.90
17423;DHT22;8829;47.932;7.810;2024-01-06T12:17:12;7.10;99.90
17423;DHT22;8829;47.932;7.810;2024-01-06T12:19:40;7.10;99.90
17423;DHT22;8829;47.932;7.810;2024-01-06T12:22:10;7.30;99.90
17423;DHT22;8829;47.932;7.810;2024-01-06T12:24:37;7.10;99.90
17423;DHT22;8829;47.932;7.810;2024-01-06T12:27:07;7.20;99.90
17423;DHT22;8829;47.932;7.810;2024-01-06T12:29:37;7.30;99.90
17423;DHT22;8829;47.932;7.810;2024-01-06T12:32:06;7.50;99.90
17423;DHT22;8829;47.932;7.810;2024-01-06T12:34:33;7.40;99.90
17423;DHT22;8829;47.932;7.810;2024-01-06T12:37:00;7.00;99.90
17423;DHT22;8829;47.932;7.810;2024-01-06T12:39:30;6.60;99.90
17423;DHT22;8829;47.932;7.810;2024-01-06T12:41:57;6.30;99.90
17423;DHT22;8829;47.932;7.810;2024-01-06T12:44:25;6.30;99.90
17423;DHT22;8829;47.932;7.810;2024-01-06T12:46:52;6.20;99.90
17423;DHT22;8829;47.932;7.810;2024-01-06T12:49:19;6.30;99.90
17423;DHT22;8829;47.932;7.810;2024-01-06T12:51:46;6.30;99.90
17423;DHT22;8829;47.932;7.810;2024-01-06T12:54:13;6.40;99.90
17423;DHT22;8829;47.932;7.810;2024-01-06T12:56:41;6.50;99.90
17423;DHT22;8829;47.932;7.810;2024-01-06T12:59:07;6.60;99.90
17423;DHT22;8829;47.932;7.810;2024-01-06T13:01:34;6.20;99.90
17423;DHT22;8829;47.932;7.810;2024-01-06T13:04:01;6.30;99.90
17423;DHT22;8829;47.932;7.810;2024-01-06T13:06:28;6.50;99.90
17423;DHT22;8829;47.932;7.810;2024-01-06T13:08:55;6.70;99.90
17423;DHT22;8829;47.932;7.810;2024-01-06T13:11:22;6.80;99.90
17423;DHT22;8829;47.932;7.810;2024-01-06T13:13:51;6.90;99.90
17423;DHT22;8829;47.932;7.810;2024-01-06T13:16:17;6.80;99.90
17423;DHT22;8829;47.932;7.810;2024-01-06T13:18:44;6.90;99.90
17423;DHT22;8829;47.932;7.810;2024-01-06T13:21:11;6.90;99.90
17423;DHT22;8829;47.932;7.810;2024-01-06T13:23:37;6.90;99.90
17423;DHT22;8829;47.932;7.810;2024-01-06T13:26:04;6.80;99.90
17423;DHT22;8829;47.932;7.810;2024-01-06T13:28:31;6.80;99.90
17423;DHT22;8829;47.932;7.810;2024-01-06T13:30:59;6.70;99.90
17423;DHT22;8829;47.932;7.810;2024-01-06T13:33:26;6.60;99.90
17423;DHT22;8829;47.932;7.810;2024-01-06T13:35:54;6.60;99.90
17423;DHT22;8829;47.932;7.810;2024-01-06T13:38:20;6.70;99.90
17423;DHT22;8829;47.932;7.810;2024-01-06T13:40:48;6.70;99.90
17423;DHT22;8829;47.932;7.810;2024-01-06T13:43:14;6.60;99.90
17423;DHT22;8829;47.932;7.810;2024-01-06T13:45:44;6.40;99.90
17423;DHT22;8829;47.932;7.810;2024-01-06T13:48:12;6.20;99.90
17423;DHT22;8829;47.932;7.810;2024-01-06T13:50:39;5.90;99.90
17423;DHT22;8829;47.932;7.810;2024-01-06T13:53:06;5.70;99.90
17423;DHT22;8829;47.932;7.810;2024-01-06T13:55:33;5.90;99.90
17423;DHT22;8829;47.932;7.810;2024-01-06T13:58:00;6.00;99.90
17423;DHT22;8829;47.932;7.810;2024-01-06T14:00:27;5.70;99.90
17423;DHT22;8829;47.932;7.810;2024-01-06T14:02:53;5.60;99.90
17423;DHT22;8829;47.932;7.810;2024-01-06T14:05:23;5.80;99.90
17423;DHT22;8829;47.932;7.810;2024-01-06T14:07:50;5.70;99.90
17423;DHT22;8829;47.932;7.810;2024-01-06T14:10:17;5.60;99.90
17423;DHT22;8829;47.932;7.810;2024-01-06T14:12:43;5.60;99.90
17423;DHT22;8829;47.932;7.810;2024-01-06T14:15:11;5.50;99.90
17423;DHT22;8829;47.932;7.810;2024-01-06T14:17:38;5.50;99.90
17423;DHT22;8829;47.932;7.810;2024-01-06T14:20:07;5.50;99.90
17423;DHT22;8829;47.932;7.810;2024-01-06T14:22:39;5.50;99.90
17423;DHT22;8829;47.932;7.810;2024-01-06T14:25:06;5.50;99.90
17423;DHT22;8829;47.932;7.810;2024-01-06T14:27:33;5.40;99.90
17423;DHT22;8829;47.932;7.810;2024-01-06T14:30:00;5.40;99.90
17423;DHT22;8829;47.932;7.810;2024-01-06T14:32:27;5.50;99.90
17423;DHT22;8829;47.932;7.810;2024-01-06T14:34:54;5.50;99.90
17423;DHT22;8829;47.932;7.810;2024-01-06T14:37:21;5.60;99.90
17423;DHT22;8829;47.932;7.810;2024-01-06T14:39:49;5.50;99.90
17423;DHT22;8829;47.932;7.810;2024-01-06T14:42:15;5.50;99.90
17423;DHT22;8829;47.932;7.810;2024-01-06T14:44:44;5.50;99.90
17423;DHT22;8829;47.932;7.810;2024-01-06T14:47:11;5.40;99.90
17423;DHT22;8829;47.932;7.810;2024-01-06T14:49:38;5.40;99.90
17423;DHT22;8829;47.932;7.810;2024-01-06T14:52:05;5.40;99.90
17423;DHT22;8829;47.932;7.810;2024-01-06T14:54:32;5.50;99.90
17423;DHT22;8829;47.932;7.810;2024-01-06T14:57:00;5.60;99.90
17423;DHT22;8829;47.932;7.810;2024-01-06T14:59:27;5.70;99.90
17423;DHT22;8829;47.932;7.810;2024-01-06T15:01:53;5.80;99.90
17423;DHT22;8829;47.932;7.810;2024-01-06T15:04:20;5.60;99.90
17423;DHT22;8829;47.932;7.810;2024-01-06T15:06:47;5.50;99.90
17423;DHT22;8829;47.932;7.810;2024-01-06T15:09:14;5.40;99.90
17423;DHT22;8829;47.932;7.810;2024-01-06T15:11:41;5.40;99.90
17423;DHT22;8829;47.932;7.810;2024-01-06T15:14:09;5.40;99.90
17423;DHT22;8829;47.932;7.810;2024-01-06T15:16:36;5.30;99.90
17423;DHT22;8829;47.932;7.810;2024-01-06T15:19:03;5.40;99.90
17423;DHT22;8829;47.932;7.810;2024-01-06T15:21:29;5.30;99.90
17423;DHT22;8829;47.932;7.810;2024-01-06T15:23:59;5.40;99.90
17423;DHT22;8829;47.932;7.810;2024-01-06T15:26:28;5.40;99.90
17423;DHT22;8829;47.932;7.810;2024-01-06T15:28:55;5.50;99.90
17423;DHT22;8829;47.932;7.810;2024-01-06T15:31:27;5.50;99.90
17423;DHT22;8829;47.932;7.810;2024-01-06T15:33:54;5.50;99.90
17423;DHT22;8829;47.932;7.810;2024-01-06T15:36:21;5.40;99.90
17423;DHT22;8829;47.932;7.810;2024-01-06T15:38:47;5.30;99.90
17423;DHT22;8829;47.932;7.810;2024-01-06T15:41:14;5.20;99.90
17423;DHT22;8829;47.932;7.810;2024-01-06T15:43:41;5.10;99.90
17423;DHT22;8829;47.932;7.810;2024-01-06T15:46:08;5.20;99.90
17423;DHT22;8829;47.932;7.810;2024-01-06T15:48:36;5.10;99.90
17423;DHT22;8829;47.932;7.810;2024-01-06T15:51:03;5.10;99.90
17423;DHT22;8829;47.932;7.810;2024-01-06T15:53:30;5.00;99.90
17423;DHT22;8829;47.932;7.810;2024-01-06T15:55:57;4.90;99.90
17423;DHT22;8829;47.932;7.810;2024-01-06T15:58:23;5.00;99.90
17423;DHT22;8829;47.932;7.810;2024-01-06T16:00:50;5.00;99.90
17423;DHT22;8829;47.932;7.810;2024-01-06T16:03:17;5.00;99.90